createdAt,value
2024-04-08T04:06:31.036Z,15.80
2024-04-08T04:07:33.888Z,15.80
2024-04-08T04:08:37.296Z,15.80
2024-04-08T04:09:40.062Z,15.80
2024-04-08T04:10:43.343Z,15.80
2024-04-08T04:11:46.131Z,15.80
2024-04-08T04:12:48.828Z,15.80
2024-04-08T04:13:51.707Z,15.80
2024-04-08T04:14:55.531Z,15.80
2024-04-08T04:15:58.416Z,15.80
2024-04-08T04:17:01.098Z,15.80
2024-04-08T04:18:03.835Z,15.80
2024-04-08T04:19:06.996Z,15.80
2024-04-08T04:20:16.230Z,15.80
2024-04-08T04:21:19.194Z,15.80
2024-04-08T04:22:21.960Z,15.80
2024-04-08T04:23:24.890Z,15.80
2024-04-08T04:24:27.717Z,15.80
2024-04-08T04:25:30.531Z,15.80
2024-04-08T04:26:33.332Z,15.80
2024-04-08T04:27:36.658Z,15.80
2024-04-08T04:28:39.464Z,15.80
2024-04-08T04:29:42.225Z,15.80
2024-04-08T04:30:53.150Z,15.80
2024-04-08T04:31:56.027Z,15.80
2024-04-08T04:33:00.225Z,15.80
2024-04-08T04:34:02.903Z,15.80
2024-04-08T04:35:05.969Z,15.80
2024-04-08T04:36:08.863Z,15.80
2024-04-08T04:37:11.990Z,15.80
2024-04-08T04:38:14.749Z,15.80
2024-04-08T04:39:17.580Z,15.80
2024-04-08T04:40:20.407Z,15.70
2024-04-08T04:41:23.375Z,15.70
2024-04-08T04:42:26.200Z,15.70
2024-04-08T04:43:30.001Z,15.70
2024-04-08T04:44:32.956Z,15.70
2024-04-08T04:45:35.740Z,15.70
2024-04-08T04:46:38.508Z,15.70
2024-04-08T04:47:41.614Z,15.70
2024-04-08T04:48:47.179Z,15.70
2024-04-08T04:49:49.927Z,15.60
2024-04-08T04:50:53.105Z,15.60
2024-04-08T04:51:55.903Z,15.60
2024-04-08T04:52:59.194Z,15.60
2024-04-08T04:54:02.206Z,15.60
2024-04-08T04:55:05.248Z,15.60
2024-04-08T04:56:08.280Z,15.60
2024-04-08T04:57:10.987Z,15.60
2024-04-08T04:58:13.720Z,15.60
2024-04-08T04:59:17.062Z,15.50
2024-04-08T05:00:20.085Z,15.50
2024-04-08T05:01:22.963Z,15.50
2024-04-08T05:02:25.831Z,15.50
2024-04-08T05:03:28.509Z,15.50
2024-04-08T05:04:31.341Z,15.50
2024-04-08T05:05:34.271Z,15.50
2024-04-08T05:06:37.024Z,15.50
2024-04-08T05:07:40.162Z,15.50
2024-04-08T05:08:43.478Z,15.50
2024-04-08T05:09:46.670Z,15.50
2024-04-08T05:10:49.631Z,15.50
2024-04-08T05:11:52.720Z,15.60
2024-04-08T05:12:55.611Z,15.50
2024-04-08T05:13:58.480Z,15.60
2024-04-08T05:15:01.375Z,15.60
2024-04-08T05:16:05.812Z,15.60
2024-04-08T05:17:08.687Z,15.60
2024-04-08T05:18:11.586Z,15.70
2024-04-08T05:19:14.392Z,15.70
2024-04-08T05:20:17.436Z,15.70
2024-04-08T05:21:20.300Z,15.70
2024-04-08T05:22:25.016Z,15.80
2024-04-08T05:23:28.769Z,15.80
2024-04-08T05:24:31.998Z,15.90
2024-04-08T05:25:34.670Z,15.90
2024-04-08T05:26:37.828Z,16.00
2024-04-08T05:27:40.768Z,16.00
2024-04-08T05:28:43.742Z,15.90
2024-04-08T05:29:46.619Z,16.00
2024-04-08T05:30:50.221Z,16.00
2024-04-08T05:31:53.077Z,16.00
2024-04-08T05:32:55.957Z,16.00
2024-04-08T05:33:58.784Z,16.10
2024-04-08T05:35:02.162Z,16.10
2024-04-08T05:36:05.764Z,16.10
2024-04-08T05:37:08.568Z,16.10
2024-04-08T05:38:11.656Z,16.10
2024-04-08T05:39:14.432Z,16.10
2024-04-08T05:40:18.501Z,16.10
2024-04-08T05:41:21.316Z,16.10
2024-04-08T05:42:24.297Z,16.10
2024-04-08T05:43:27.160Z,16.10
2024-04-08T05:44:30.183Z,16.10
2024-04-08T05:45:33.833Z,16.20
2024-04-08T05:46:36.606Z,16.20
2024-04-08T05:47:40.145Z,16.20
2024-04-08T05:48:44.013Z,16.20
2024-04-08T05:49:46.810Z,16.30
2024-04-08T05:50:50.231Z,16.30
2024-04-08T05:51:53.122Z,16.30
2024-04-08T05:52:55.944Z,16.30
2024-04-08T05:54:00.355Z,16.30
2024-04-08T05:55:03.594Z,16.30
2024-04-08T05:56:06.876Z,16.30
2024-04-08T05:57:09.849Z,16.40
2024-04-08T05:58:12.734Z,16.40
2024-04-08T05:59:15.496Z,16.40
2024-04-08T06:00:20.374Z,16.50
2024-04-08T06:01:23.395Z,16.50
2024-04-08T06:02:26.217Z,16.50
2024-04-08T06:03:28.947Z,16.60
2024-04-08T06:04:31.869Z,16.60
2024-04-08T06:05:36.258Z,16.70
2024-04-08T06:06:39.205Z,16.80
2024-04-08T06:07:42.178Z,16.80
2024-04-08T06:08:45.164Z,16.90
2024-04-08T06:09:47.978Z,16.90
2024-04-08T06:10:52.397Z,17.00
2024-04-08T06:11:55.314Z,17.00
2024-04-08T06:12:58.097Z,17.10
2024-04-08T06:14:01.700Z,17.20
2024-04-08T06:15:04.589Z,17.30
2024-04-08T06:16:09.786Z,17.30
2024-04-08T06:17:12.718Z,17.40
2024-04-08T06:18:17.475Z,17.40
2024-04-08T06:19:21.423Z,17.50
2024-04-08T06:20:24.153Z,17.50
2024-04-08T06:21:26.866Z,17.50
2024-04-08T06:22:29.795Z,17.50
2024-04-08T06:23:32.564Z,17.50
2024-04-08T06:24:35.668Z,17.50
2024-04-08T06:25:38.424Z,17.60
2024-04-08T06:26:41.686Z,17.60
2024-04-08T06:27:44.474Z,17.60
2024-04-08T06:28:47.720Z,17.70
2024-04-08T06:29:50.663Z,17.80
2024-04-08T06:30:53.610Z,17.80
2024-04-08T06:31:56.498Z,17.80
2024-04-08T06:32:59.278Z,17.90
2024-04-08T06:34:02.259Z,17.90
2024-04-08T06:35:05.476Z,18.00
2024-04-08T06:36:09.314Z,18.10
2024-04-08T06:37:12.086Z,18.20
2024-04-08T06:38:15.369Z,18.20
2024-04-08T06:39:18.089Z,18.40
2024-04-08T06:40:21.021Z,18.40
2024-04-08T06:41:24.094Z,18.50
2024-04-08T06:42:26.867Z,18.60
2024-04-08T06:43:30.101Z,18.80
2024-04-08T06:44:32.978Z,18.80
2024-04-08T06:45:36.410Z,18.80
2024-04-08T06:46:39.082Z,18.90
2024-04-08T06:47:42.088Z,18.90
2024-04-08T06:48:44.889Z,19.00
2024-04-08T06:49:48.679Z,19.00
2024-04-08T06:50:52.256Z,19.00
2024-04-08T06:51:54.993Z,19.00
2024-04-08T06:52:57.763Z,19.10
2024-04-08T06:54:00.672Z,19.10
2024-04-08T06:55:03.556Z,19.20
2024-04-08T06:56:06.853Z,19.20
2024-04-08T06:57:09.672Z,19.20
2024-04-08T06:58:16.347Z,19.20
2024-04-08T06:59:19.104Z,19.20
2024-04-08T07:00:25.735Z,19.30
2024-04-08T07:01:29.828Z,19.30
2024-04-08T07:02:32.744Z,19.40
2024-04-08T07:03:35.840Z,19.40
2024-04-08T07:04:38.703Z,19.40
2024-04-08T07:05:46.099Z,19.50
2024-04-08T07:06:49.130Z,19.50
2024-04-08T07:07:51.932Z,19.60
2024-04-08T07:08:55.254Z,19.60
2024-04-08T07:09:58.514Z,19.60
2024-04-08T07:11:01.293Z,19.50
2024-04-08T07:12:04.621Z,19.60
2024-04-08T07:13:07.327Z,19.60
2024-04-08T07:14:09.995Z,19.50
2024-04-08T07:15:14.253Z,19.50
2024-04-08T07:16:17.690Z,19.50
2024-04-08T07:17:21.847Z,19.50
2024-04-08T07:18:25.405Z,19.50
2024-04-08T07:19:28.112Z,19.50
2024-04-08T07:20:31.564Z,19.50
2024-04-08T07:21:34.228Z,19.50
2024-04-08T07:22:37.016Z,19.50
2024-04-08T07:23:40.016Z,19.50
2024-04-08T07:24:43.423Z,19.50
2024-04-08T07:25:46.182Z,19.60
2024-04-08T07:26:49.466Z,19.70
2024-04-08T07:27:52.291Z,19.70
2024-04-08T07:28:55.104Z,19.80
2024-04-08T07:29:57.989Z,20.00
2024-04-08T07:31:00.863Z,20.10
2024-04-08T07:32:04.089Z,20.20
2024-04-08T07:33:07.484Z,20.40
2024-04-08T07:34:10.303Z,20.50
2024-04-08T07:35:16.250Z,20.60
2024-04-08T07:36:19.126Z,20.70
2024-04-08T07:37:21.947Z,20.80
2024-04-08T07:38:24.815Z,20.80
2024-04-08T07:39:30.175Z,20.80
2024-04-08T07:40:34.878Z,20.90
2024-04-08T07:41:37.810Z,20.90
2024-04-08T07:42:40.884Z,20.80
2024-04-08T07:43:44.828Z,20.80
2024-04-08T07:44:48.134Z,20.80
2024-04-08T07:45:50.984Z,20.80
2024-04-08T07:46:53.749Z,20.80
2024-04-08T07:47:56.560Z,20.80
2024-04-08T07:48:59.394Z,20.90
2024-04-08T07:50:03.747Z,20.90
2024-04-08T07:51:06.877Z,21.00
2024-04-08T07:52:09.708Z,21.00
2024-04-08T07:53:12.428Z,21.10
2024-04-08T07:54:15.967Z,21.10
2024-04-08T07:55:19.209Z,21.00
2024-04-08T07:56:22.176Z,20.90
2024-04-08T07:57:25.112Z,20.90
2024-04-08T07:58:27.976Z,20.80
2024-04-08T07:59:30.712Z,20.80
2024-04-08T08:00:34.195Z,20.80
2024-04-08T08:01:36.961Z,20.80
2024-04-08T08:02:39.730Z,20.70
2024-04-08T08:03:42.566Z,20.70
2024-04-08T08:04:45.331Z,20.70
2024-04-08T08:05:48.236Z,20.60
2024-04-08T08:06:51.124Z,20.60
2024-04-08T08:07:54.003Z,20.60
2024-04-08T08:08:56.876Z,20.70
2024-04-08T08:09:59.697Z,20.70
2024-04-08T08:11:06.165Z,20.70
2024-04-08T08:12:09.234Z,20.80
2024-04-08T08:13:12.563Z,20.90
2024-04-08T08:14:15.450Z,20.90
2024-04-08T08:15:18.426Z,20.90
2024-04-08T08:16:21.254Z,20.90
2024-04-08T08:17:28.215Z,20.90
2024-04-08T08:18:33.119Z,20.90
2024-04-08T08:19:36.494Z,20.90
2024-04-08T08:20:39.978Z,20.80
2024-04-08T08:21:43.050Z,20.80
2024-04-08T08:22:45.821Z,20.70
2024-04-08T08:23:48.666Z,20.70
2024-04-08T08:24:51.467Z,20.70
2024-04-08T08:25:54.706Z,20.70
2024-04-08T08:26:57.822Z,20.70
2024-04-08T08:28:00.598Z,20.70
2024-04-08T08:29:03.522Z,20.80
2024-04-08T08:30:07.092Z,20.80
2024-04-08T08:31:09.993Z,20.80
2024-04-08T08:32:12.817Z,20.80
2024-04-08T08:33:15.639Z,20.80
2024-04-08T08:34:18.605Z,20.80
2024-04-08T08:35:21.487Z,20.80
2024-04-08T08:36:24.264Z,20.70
2024-04-08T08:37:27.033Z,20.70
2024-04-08T08:38:29.856Z,20.70
2024-04-08T08:39:38.468Z,20.60
2024-04-08T08:40:45.513Z,20.60
2024-04-08T08:41:56.404Z,20.60
2024-04-08T08:42:59.330Z,20.60
2024-04-08T08:44:03.940Z,20.60
2024-04-08T08:45:13.230Z,20.60
2024-04-08T08:46:16.298Z,20.60
2024-04-08T08:47:19.117Z,20.70
2024-04-08T08:48:22.666Z,20.70
2024-04-08T08:49:29.683Z,20.80
2024-04-08T08:50:33.735Z,20.80
2024-04-08T08:51:36.658Z,20.90
2024-04-08T08:52:40.002Z,20.90
2024-04-08T08:53:42.864Z,20.90
2024-04-08T08:54:45.748Z,20.90
2024-04-08T08:55:49.540Z,21.00
2024-04-08T08:56:52.437Z,21.00
2024-04-08T08:57:56.412Z,21.10
2024-04-08T08:59:03.742Z,21.30
2024-04-08T09:00:08.963Z,21.40
2024-04-08T09:01:12.211Z,21.60
2024-04-08T09:02:15.033Z,21.90
2024-04-08T09:03:19.950Z,22.00
2024-04-08T09:04:23.034Z,22.20
2024-04-08T09:05:26.264Z,22.40
2024-04-08T09:06:29.033Z,22.60
2024-04-08T09:07:31.768Z,22.70
2024-04-08T09:08:34.580Z,22.80
2024-04-08T09:09:37.814Z,23.00
2024-04-08T09:10:48.596Z,23.10
2024-04-08T09:11:51.621Z,23.30
2024-04-08T09:12:54.477Z,23.30
2024-04-08T09:14:09.207Z,23.40
2024-04-08T09:15:14.566Z,23.50
2024-04-08T09:16:24.350Z,23.50
2024-04-08T09:17:27.365Z,23.60
2024-04-08T09:18:30.291Z,23.50
2024-04-08T09:19:33.186Z,23.60
2024-04-08T09:20:36.011Z,23.60
2024-04-08T09:21:41.682Z,23.60
2024-04-08T09:22:45.233Z,23.60
2024-04-08T09:23:52.214Z,23.70
2024-04-08T09:24:55.075Z,23.80
2024-04-08T09:25:57.793Z,23.90
2024-04-08T09:27:04.099Z,24.00
2024-04-08T09:28:09.432Z,24.10
2024-04-08T09:29:12.307Z,24.10
2024-04-08T09:30:15.219Z,24.20
2024-04-08T09:31:20.002Z,24.20
2024-04-08T09:32:22.824Z,24.30
2024-04-08T09:33:26.632Z,24.30
2024-04-08T09:34:30.980Z,24.40
2024-04-08T09:35:40.816Z,24.40
2024-04-08T09:36:44.872Z,24.50
2024-04-08T09:37:49.280Z,24.60
2024-04-08T09:38:53.918Z,24.70
2024-04-08T09:39:57.235Z,24.80
2024-04-08T09:41:01.175Z,24.90
2024-04-08T09:42:05.866Z,25.00
2024-04-08T09:43:13.896Z,25.20
2024-04-08T09:44:19.382Z,25.30
2024-04-08T09:45:24.195Z,25.40
2024-04-08T09:46:30.045Z,25.60
2024-04-08T09:47:34.670Z,25.70
2024-04-08T09:48:38.609Z,25.80
2024-04-08T09:49:48.344Z,25.90
2024-04-08T09:50:55.914Z,25.90
2024-04-08T09:52:00.806Z,26.00
2024-04-08T09:53:04.647Z,26.00
2024-04-08T09:54:08.734Z,26.10
2024-04-08T09:55:11.988Z,26.10
2024-04-08T09:56:21.452Z,26.10
2024-04-08T09:57:28.991Z,26.00
2024-04-08T09:58:35.044Z,26.00
2024-04-08T09:59:40.320Z,25.90
2024-04-08T10:00:47.120Z,25.90
2024-04-08T10:01:51.241Z,25.80
2024-04-08T10:02:56.658Z,25.70
2024-04-08T10:04:05.234Z,25.50
2024-04-08T10:05:08.269Z,25.40
2024-04-08T10:06:12.794Z,25.30
2024-04-08T10:07:15.862Z,25.20
2024-04-08T10:08:18.980Z,25.00
2024-04-08T10:09:22.446Z,25.00
2024-04-08T10:10:26.160Z,24.90
2024-04-08T10:11:29.477Z,24.90
2024-04-08T10:12:33.350Z,24.90
2024-04-08T10:13:49.388Z,24.80
2024-04-08T10:14:52.223Z,24.70
2024-04-08T10:15:54.982Z,24.70
2024-04-08T10:17:00.930Z,24.70
2024-04-08T10:18:09.203Z,24.60
2024-04-08T10:19:15.858Z,24.60
2024-04-08T10:20:20.351Z,24.60
2024-04-08T10:21:24.812Z,24.60
2024-04-08T10:22:31.221Z,24.50
2024-04-08T10:23:37.592Z,24.60
2024-04-08T10:24:41.689Z,24.50
2024-04-08T10:25:49.342Z,24.60
2024-04-08T10:27:02.615Z,24.60
2024-04-08T10:28:21.639Z,24.60
2024-04-08T10:29:27.491Z,24.60
2024-04-08T10:30:30.312Z,24.50
2024-04-08T10:31:33.085Z,24.60
2024-04-08T10:32:37.292Z,24.60
2024-04-08T10:33:40.565Z,24.80
2024-04-08T10:34:43.343Z,24.90
2024-04-08T10:35:46.167Z,25.10
2024-04-08T10:36:48.980Z,25.30
2024-04-08T10:37:52.276Z,25.40
2024-04-08T10:38:56.131Z,25.60
2024-04-08T10:39:59.363Z,25.70
2024-04-08T10:41:09.385Z,25.80
2024-04-08T10:42:16.994Z,25.90
2024-04-08T10:43:21.697Z,26.10
2024-04-08T10:44:24.565Z,26.20
2024-04-08T10:45:28.222Z,26.30
2024-04-08T10:46:31.848Z,26.50
2024-04-08T10:47:35.067Z,26.60
2024-04-08T10:48:40.836Z,26.70
2024-04-08T10:49:43.706Z,26.80
2024-04-08T10:50:50.233Z,26.90
2024-04-08T10:51:53.255Z,27.00
2024-04-08T10:52:56.938Z,27.00
2024-04-08T10:53:59.748Z,27.00
2024-04-08T10:55:02.764Z,27.00
2024-04-08T10:56:07.655Z,26.90
2024-04-08T10:57:10.811Z,26.90
2024-04-08T10:58:15.404Z,26.70
2024-04-08T10:59:18.175Z,26.70
2024-04-08T11:00:20.904Z,26.60
2024-04-08T11:01:23.932Z,26.60
2024-04-08T11:02:27.214Z,26.60
2024-04-08T11:03:29.936Z,26.50
2024-04-08T11:04:33.842Z,26.40
2024-04-08T11:05:36.807Z,26.30
2024-04-08T11:06:40.349Z,26.30
2024-04-08T11:07:45.231Z,26.30
2024-04-08T11:08:48.760Z,26.30
2024-04-08T11:09:51.687Z,26.20
2024-04-08T11:10:54.576Z,26.20
2024-04-08T11:11:57.363Z,26.10
2024-04-08T11:13:01.477Z,26.10
2024-04-08T11:14:06.175Z,26.10
2024-04-08T11:15:12.720Z,26.10
2024-04-08T11:16:17.380Z,26.20
2024-04-08T11:17:26.519Z,26.30
2024-04-08T11:18:29.304Z,26.40
2024-04-08T11:19:33.020Z,26.50
2024-04-08T11:20:35.942Z,26.60
2024-04-08T11:21:39.590Z,26.60
2024-04-08T11:22:42.454Z,26.70
2024-04-08T11:23:45.344Z,26.70
2024-04-08T11:24:48.316Z,26.70
2024-04-08T11:25:52.323Z,26.70
2024-04-08T11:27:02.638Z,26.60
2024-04-08T11:28:07.282Z,26.60
2024-04-08T11:29:10.685Z,26.50
2024-04-08T11:30:18.076Z,26.50
2024-04-08T11:31:21.020Z,26.50
2024-04-08T11:32:24.516Z,26.40
2024-04-08T11:33:27.488Z,26.40
2024-04-08T11:34:30.249Z,26.40
2024-04-08T11:35:33.314Z,26.40
2024-04-08T11:36:36.818Z,26.40
2024-04-08T11:37:42.073Z,26.30
2024-04-08T11:38:46.569Z,26.40
2024-04-08T11:39:49.401Z,26.30
2024-04-08T11:40:53.641Z,26.30
2024-04-08T11:41:56.483Z,26.30
2024-04-08T11:42:59.451Z,26.30
2024-04-08T11:44:02.837Z,26.30
2024-04-08T11:45:08.664Z,26.30
2024-04-08T11:46:13.612Z,26.30
2024-04-08T11:47:19.703Z,26.30
2024-04-08T11:48:24.453Z,26.30
2024-04-08T11:49:27.393Z,26.30
2024-04-08T11:50:30.191Z,26.30
2024-04-08T11:51:34.302Z,26.30
2024-04-08T11:52:37.302Z,26.30
2024-04-08T11:53:41.793Z,26.30
2024-04-08T11:54:53.307Z,26.30
2024-04-08T11:56:03.909Z,26.30
2024-04-08T11:57:06.741Z,26.30
2024-04-08T11:58:09.644Z,26.30
2024-04-08T11:59:12.480Z,26.20
2024-04-08T12:00:21.215Z,26.30
2024-04-08T12:01:24.567Z,26.20
2024-04-08T12:02:27.444Z,26.20
2024-04-08T12:03:30.318Z,26.20
2024-04-08T12:04:33.381Z,26.20
2024-04-08T12:05:36.224Z,26.20
2024-04-08T12:06:39.345Z,26.30
2024-04-08T12:07:43.509Z,26.30
2024-04-08T12:08:46.378Z,26.30
2024-04-08T12:09:49.775Z,26.30
2024-04-08T12:10:52.680Z,26.30
2024-04-08T12:11:56.466Z,26.30
2024-04-08T12:13:16.982Z,26.30
2024-04-08T12:14:20.361Z,26.30
2024-04-08T12:15:24.728Z,26.30
2024-04-08T12:16:30.820Z,26.40
2024-04-08T12:17:34.514Z,26.40
2024-04-08T12:18:37.319Z,26.40
2024-04-08T12:19:41.804Z,26.40
2024-04-08T12:20:45.942Z,26.40
2024-04-08T12:21:48.822Z,26.50
2024-04-08T12:22:53.296Z,26.50
2024-04-08T12:23:56.322Z,26.50
2024-04-08T12:24:59.192Z,26.50
2024-04-08T12:26:02.185Z,26.50
2024-04-08T12:27:05.214Z,26.50
2024-04-08T12:28:10.921Z,26.50
2024-04-08T12:29:13.708Z,26.60
2024-04-08T12:30:16.763Z,26.60
2024-04-08T12:31:19.603Z,26.60
2024-04-08T12:32:23.878Z,26.70
2024-04-08T12:33:26.964Z,26.70
2024-04-08T12:34:29.823Z,26.70
2024-04-08T12:35:32.533Z,26.70
2024-04-08T12:36:35.786Z,26.80
2024-04-08T12:37:38.799Z,26.70
2024-04-08T12:38:41.627Z,26.80
2024-04-08T12:39:44.861Z,26.80
2024-04-08T12:40:47.831Z,26.80
2024-04-08T12:41:50.745Z,26.80
2024-04-08T12:42:53.655Z,26.80
2024-04-08T12:43:57.647Z,26.80
2024-04-08T12:45:07.928Z,26.80
2024-04-08T12:46:14.958Z,26.80
2024-04-08T12:47:18.360Z,26.80
2024-04-08T12:48:21.421Z,26.80
2024-04-08T12:49:29.273Z,26.80
2024-04-08T12:50:33.803Z,26.80
2024-04-08T12:51:37.064Z,26.90
2024-04-08T12:52:40.068Z,26.90
2024-04-08T12:53:43.013Z,26.90
2024-04-08T12:54:45.814Z,27.00
2024-04-08T12:55:52.065Z,27.10
2024-04-08T12:56:54.993Z,27.10
2024-04-08T12:57:57.945Z,27.10
2024-04-08T12:59:00.969Z,27.10
2024-04-08T13:00:04.887Z,27.10
2024-04-08T13:01:07.791Z,27.10
2024-04-08T13:02:10.824Z,27.10
2024-04-08T13:03:13.613Z,27.10
2024-04-08T13:04:16.659Z,27.10
2024-04-08T13:05:19.671Z,27.10
2024-04-08T13:06:23.538Z,27.10
2024-04-08T13:07:26.808Z,27.10
2024-04-08T13:08:29.744Z,27.10
2024-04-08T13:09:32.623Z,27.10
2024-04-08T13:10:35.500Z,27.10
2024-04-08T13:11:38.472Z,27.10
2024-04-08T13:12:41.300Z,27.00
2024-04-08T13:13:46.860Z,27.00
2024-04-08T13:14:51.385Z,27.00
2024-04-08T13:15:54.284Z,26.90
2024-04-08T13:16:57.668Z,26.90
2024-04-08T13:18:00.637Z,26.90
2024-04-08T13:19:03.661Z,26.90
2024-04-08T13:20:07.215Z,26.90
2024-04-08T13:21:11.154Z,26.90
2024-04-08T13:22:13.973Z,26.90
2024-04-08T13:23:16.795Z,26.90
2024-04-08T13:24:19.859Z,26.90
2024-04-08T13:25:23.259Z,26.90
2024-04-08T13:26:27.666Z,26.90
2024-04-08T13:27:30.656Z,26.90
2024-04-08T13:28:33.577Z,26.90
2024-04-08T13:29:36.300Z,26.90
2024-04-08T13:30:39.120Z,26.90
2024-04-08T13:31:45.639Z,27.00
2024-04-08T13:32:48.995Z,27.00
2024-04-08T13:33:52.303Z,27.00
2024-04-08T13:34:55.222Z,27.00
2024-04-08T13:35:58.153Z,27.00
2024-04-08T13:37:01.588Z,27.00
2024-04-08T13:38:04.310Z,27.00
2024-04-08T13:39:07.196Z,27.00
2024-04-08T13:40:10.336Z,27.00
2024-04-08T13:41:13.089Z,27.00
2024-04-08T13:42:16.032Z,27.00
2024-04-08T13:43:20.175Z,27.00
2024-04-08T13:44:23.148Z,27.00
2024-04-08T13:45:26.265Z,26.90
2024-04-08T13:46:29.303Z,26.90
2024-04-08T13:47:32.340Z,26.90
2024-04-08T13:48:35.556Z,26.90
2024-04-08T13:49:39.896Z,26.90
2024-04-08T13:50:43.669Z,26.90
2024-04-08T13:51:57.714Z,26.90
2024-04-08T13:53:00.779Z,26.90
2024-04-08T13:54:04.106Z,26.90
2024-04-08T13:55:06.942Z,26.90
2024-04-08T13:56:09.810Z,26.90
2024-04-08T13:57:12.506Z,26.90
2024-04-08T13:58:15.254Z,27.00
2024-04-08T13:59:18.176Z,27.00
2024-04-08T14:00:20.976Z,27.10
2024-04-08T14:01:24.226Z,27.00
2024-04-08T14:02:27.137Z,27.00
2024-04-08T14:03:30.098Z,27.00
2024-04-08T14:04:33.168Z,27.00
2024-04-08T14:05:36.029Z,27.00
2024-04-08T14:06:38.969Z,27.00
2024-04-08T14:07:41.899Z,27.10
2024-04-08T14:08:45.740Z,27.10
2024-04-08T14:09:48.672Z,27.10
2024-04-08T14:10:51.574Z,27.10
2024-04-08T14:11:54.507Z,27.10
2024-04-08T14:12:57.439Z,27.10
2024-04-08T14:14:00.321Z,27.10
2024-04-08T14:15:03.276Z,27.10
2024-04-08T14:16:08.532Z,27.10
2024-04-08T14:17:11.294Z,27.10
2024-04-08T14:18:14.164Z,27.10
2024-04-08T14:19:17.101Z,27.10
2024-04-08T14:20:19.928Z,27.10
2024-04-08T14:21:23.367Z,27.10
2024-04-08T14:22:26.350Z,27.10
2024-04-08T14:23:29.128Z,27.10
2024-04-08T14:24:31.945Z,27.00
2024-04-08T14:25:36.195Z,27.00
2024-04-08T14:26:39.109Z,27.00
2024-04-08T14:27:42.157Z,27.00
2024-04-08T14:28:46.141Z,26.90
2024-04-08T14:29:52.911Z,26.90
2024-04-08T14:31:02.121Z,26.90
2024-04-08T14:32:05.254Z,26.80
2024-04-08T14:33:08.111Z,26.70
2024-04-08T14:34:11.086Z,26.70
2024-04-08T14:35:13.939Z,26.60
2024-04-08T14:36:16.785Z,26.60
2024-04-08T14:37:20.462Z,26.60
2024-04-08T14:38:46.750Z,26.60
2024-04-08T14:39:48.766Z,26.60
2024-04-08T14:40:51.856Z,26.60
2024-04-08T14:41:54.710Z,26.70
2024-04-08T14:42:57.654Z,26.70
2024-04-08T14:44:07.331Z,26.70
2024-04-08T14:45:15.384Z,26.80
2024-04-08T14:46:18.919Z,26.90
2024-04-08T14:47:21.731Z,26.90
2024-04-08T14:48:24.784Z,27.00
2024-04-08T14:49:27.854Z,27.00
2024-04-08T14:50:30.629Z,27.10
2024-04-08T14:51:39.048Z,27.10
2024-04-08T14:52:44.466Z,27.10
2024-04-08T14:53:47.580Z,27.10
2024-04-08T14:54:50.791Z,27.10
2024-04-08T14:55:54.171Z,27.20
2024-04-08T14:56:57.629Z,27.10
2024-04-08T14:58:00.622Z,27.20
2024-04-08T14:59:03.980Z,27.10
2024-04-08T15:00:08.677Z,27.10
2024-04-08T15:01:13.361Z,27.10
2024-04-08T15:02:16.595Z,27.10
2024-04-08T15:03:19.637Z,27.10
2024-04-08T15:04:22.427Z,27.10
2024-04-08T15:05:25.214Z,27.00
2024-04-08T15:06:28.429Z,27.00
2024-04-08T15:07:36.034Z,27.00
2024-04-08T15:08:38.906Z,26.90
2024-04-08T15:09:41.937Z,26.90
2024-04-08T15:10:47.727Z,26.90
2024-04-08T15:11:50.818Z,26.90
2024-04-08T15:12:55.933Z,26.80
2024-04-08T15:13:58.721Z,26.90
2024-04-08T15:15:06.335Z,26.90
2024-04-08T15:16:09.790Z,26.90
2024-04-08T15:17:16.057Z,26.90
2024-04-08T15:18:19.490Z,26.90
2024-04-08T15:19:22.431Z,27.00
2024-04-08T15:20:25.421Z,27.00
2024-04-08T15:21:28.463Z,27.00
2024-04-08T15:22:31.280Z,27.10
2024-04-08T15:23:34.505Z,27.10
2024-04-08T15:24:37.342Z,27.10
2024-04-08T15:25:41.341Z,27.10
2024-04-08T15:26:47.307Z,27.10
2024-04-08T15:27:50.205Z,27.10
2024-04-08T15:28:53.131Z,27.10
2024-04-08T15:29:58.966Z,27.10
2024-04-08T15:31:04.456Z,27.10
2024-04-08T15:32:07.606Z,27.10
2024-04-08T15:33:10.821Z,27.00
2024-04-08T15:34:14.208Z,27.00
2024-04-08T15:35:17.095Z,27.00
2024-04-08T15:36:19.948Z,27.00
2024-04-08T15:37:22.891Z,27.00
2024-04-08T15:38:25.517Z,27.00
2024-04-08T15:39:28.330Z,27.10
2024-04-08T15:40:31.201Z,27.10
2024-04-08T15:41:34.033Z,27.10
2024-04-08T15:42:36.798Z,27.20
2024-04-08T15:43:39.630Z,27.20
2024-04-08T15:44:43.058Z,27.20
2024-04-08T15:45:55.560Z,27.20
2024-04-08T15:46:58.529Z,27.20
2024-04-08T15:48:02.924Z,27.20
2024-04-08T15:49:05.941Z,27.10
2024-04-08T15:50:10.135Z,27.10
2024-04-08T15:51:14.911Z,27.10
2024-04-08T15:52:17.977Z,27.00
2024-04-08T15:53:21.528Z,26.90
2024-04-08T15:54:24.847Z,26.80
2024-04-08T15:55:27.721Z,26.70
2024-04-08T15:56:30.479Z,26.70
2024-04-08T15:57:33.444Z,26.60
2024-04-08T15:58:37.982Z,26.50
2024-04-08T15:59:40.746Z,26.50
2024-04-08T16:00:44.337Z,26.40
2024-04-08T16:01:48.991Z,26.30
2024-04-08T16:02:52.241Z,26.30
2024-04-08T16:03:55.260Z,26.20
2024-04-08T16:04:58.440Z,26.20
2024-04-08T16:06:14.337Z,26.10
2024-04-08T16:07:17.977Z,26.10
2024-04-08T16:08:20.791Z,26.00
2024-04-08T16:09:23.656Z,25.90
2024-04-08T16:10:26.956Z,25.80
2024-04-08T16:11:29.809Z,25.80
2024-04-08T16:12:34.732Z,25.70
2024-04-08T16:13:37.930Z,25.70
2024-04-08T16:14:40.696Z,25.60
2024-04-08T16:15:49.935Z,25.50
2024-04-08T16:16:53.157Z,25.50
2024-04-08T16:17:56.139Z,25.40
2024-04-08T16:18:59.635Z,25.30
2024-04-08T16:20:02.753Z,25.30
2024-04-08T16:21:05.846Z,25.20
2024-04-08T16:22:08.669Z,25.20
2024-04-08T16:23:24.539Z,25.10
2024-04-08T16:24:34.142Z,25.10
2024-04-08T16:25:36.993Z,25.00
2024-04-08T16:26:39.770Z,25.00
2024-04-08T16:27:42.592Z,25.00
2024-04-08T16:28:47.206Z,25.00
2024-04-08T16:29:50.124Z,25.00
2024-04-08T16:31:01.357Z,25.00
2024-04-08T16:32:05.107Z,24.90
2024-04-08T16:33:08.023Z,24.90
2024-04-08T16:34:10.970Z,24.90
2024-04-08T16:35:14.292Z,24.90
2024-04-08T16:36:16.969Z,24.90
2024-04-08T16:37:19.779Z,24.90
2024-04-08T16:38:22.711Z,24.90
2024-04-08T16:39:25.653Z,24.90
2024-04-08T16:40:28.463Z,24.90
2024-04-08T16:41:31.389Z,24.90
2024-04-08T16:42:34.179Z,24.90
2024-04-08T16:43:37.032Z,24.90
2024-04-08T16:44:42.392Z,24.90
2024-04-08T16:45:55.168Z,24.90
2024-04-08T16:46:58.697Z,24.90
2024-04-08T16:48:01.803Z,24.90
2024-04-08T16:49:04.912Z,24.90
2024-04-08T16:50:09.377Z,24.80
2024-04-08T16:51:12.198Z,24.80
2024-04-08T16:52:15.031Z,24.80
2024-04-08T16:53:17.855Z,24.90
2024-04-08T16:54:20.705Z,24.80
2024-04-08T16:55:23.864Z,24.80
2024-04-08T16:56:26.684Z,24.80
2024-04-08T16:57:29.609Z,24.80
2024-04-08T16:58:32.712Z,24.80
2024-04-08T16:59:35.463Z,24.70
2024-04-08T17:00:38.504Z,24.70
2024-04-08T17:01:41.206Z,24.70
2024-04-08T17:02:44.218Z,24.70
2024-04-08T17:03:48.652Z,24.70
2024-04-08T17:04:51.914Z,24.70
2024-04-08T17:06:05.024Z,24.70
2024-04-08T17:07:09.454Z,24.80
2024-04-08T17:08:12.585Z,24.80
2024-04-08T17:09:15.439Z,24.80
2024-04-08T17:10:18.860Z,24.80
2024-04-08T17:11:21.745Z,24.80
2024-04-08T17:12:25.136Z,24.80
2024-04-08T17:13:32.177Z,24.70
2024-04-08T17:14:34.963Z,24.80
2024-04-08T17:15:39.122Z,24.80
2024-04-08T17:16:41.965Z,24.70
2024-04-08T17:17:45.524Z,24.70
2024-04-08T17:18:48.482Z,24.70
2024-04-08T17:19:52.455Z,24.70
2024-04-08T17:20:56.834Z,24.60
2024-04-08T17:21:59.890Z,24.60
2024-04-08T17:23:02.817Z,24.60
2024-04-08T17:24:05.924Z,24.60
2024-04-08T17:25:09.133Z,24.60
2024-04-08T17:26:12.109Z,24.60
2024-04-08T17:27:17.745Z,24.60
2024-04-08T17:28:21.948Z,24.60
2024-04-08T17:29:24.767Z,24.60
2024-04-08T17:30:27.860Z,24.60
2024-04-08T17:31:30.922Z,24.50
2024-04-08T17:32:34.010Z,24.50
2024-04-08T17:33:37.435Z,24.40
2024-04-08T17:34:40.410Z,24.40
2024-04-08T17:35:43.254Z,24.40
2024-04-08T17:36:46.172Z,24.30
2024-04-08T17:37:49.246Z,24.30
2024-04-08T17:38:52.137Z,24.30
2024-04-08T17:39:57.099Z,24.20
2024-04-08T17:41:05.040Z,24.20
2024-04-08T17:42:09.057Z,24.10
2024-04-08T17:43:12.036Z,24.00
2024-04-08T17:44:14.967Z,23.90
2024-04-08T17:45:17.848Z,23.90
2024-04-08T17:46:21.924Z,23.80
2024-04-08T17:47:24.760Z,23.70
2024-04-08T17:48:31.461Z,23.60